sensor_id;sensor_type;location;lat;lon;timestamp;temperature;humidity
18624;DHT22;9441;51.420;7.036;2022-08-03T00:00:42;20.20;99.90
18624;DHT22;9441;51.420;7.036;2022-08-03T00:01:43;20.20;99.90
18624;DHT22;9441;51.420;7.036;2022-08-03T00:02:45;20.20;99.90
18624;DHT22;9441;51.420;7.036;2022-08-03T00:03:46;20.30;99.90
18624;DHT22;9441;51.420;7.036;2022-08-03T00:04:48;20.40;99.90
18624;DHT22;9441;51.420;7.036;2022-08-03T00:05:49;20.30;99.90
18624;DHT22;9441;51.420;7.036;2022-08-03T00:06:51;20.30;99.90
18624;DHT22;9441;51.420;7.036;2022-08-03T00:07:52;20.30;99.90
18624;DHT22;9441;51.420;7.036;2022-08-03T00:08:54;20.30;99.90
18624;DHT22;9441;51.420;7.036;2022-08-03T00:09:56;20.30;99.90
18624;DHT22;9441;51.420;7.036;2022-08-03T00:10:57;20.20;99.90
18624;DHT22;9441;51.420;7.036;2022-08-03T00:11:59;20.30;99.90
18624;DHT22;9441;51.420;7.036;2022-08-03T00:13:01;20.30;99.90
18624;DHT22;9441;51.420;7.036;2022-08-03T00:14:03;20.30;99.90
18624;DHT22;9441;51.420;7.036;2022-08-03T00:15:06;20.40;99.90
18624;DHT22;9441;51.420;7.036;2022-08-03T00:16:08;20.40;99.90
18624;DHT22;9441;51.420;7.036;2022-08-03T00:17:11;20.40;99.90
18624;DHT22;9441;51.420;7.036;2022-08-03T00:18:12;20.30;99.90
18624;DHT22;9441;51.420;7.036;2022-08-03T00:19:14;20.30;99.90
18624;DHT22;9441;51.420;7.036;2022-08-03T00:20:15;20.30;99.90
18624;DHT22;9441;51.420;7.036;2022-08-03T00:21:17;20.30;99.90
18624;DHT22;9441;51.420;7.036;2022-08-03T00:22:18;20.20;99.90
18624;DHT22;9441;51.420;7.036;2022-08-03T00:23:20;20.00;99.90
18624;DHT22;9441;51.420;7.036;2022-08-03T00:24:21;20.00;99.90
18624;DHT22;9441;51.420;7.036;2022-08-03T00:25:24;20.00;99.90
18624;DHT22;9441;51.420;7.036;2022-08-03T00:26:25;20.00;99.90
18624;DHT22;9441;51.420;7.036;2022-08-03T00:27:27;20.00;99.90
18624;DHT22;9441;51.420;7.036;2022-08-03T00:28:28;20.00;99.90
18624;DHT22;9441;51.420;7.036;2022-08-03T00:29:30;20.00;99.90
18624;DHT22;9441;51.420;7.036;2022-08-03T00:30:32;20.10;99.90
18624;DHT22;9441;51.420;7.036;2022-08-03T00:31:35;20.10;99.90
18624;DHT22;9441;51.420;7.036;2022-08-03T00:32:39;20.20;99.90
18624;DHT22;9441;51.420;7.036;2022-08-03T00:33:41;20.20;99.90
18624;DHT22;9441;51.420;7.036;2022-08-03T00:34:42;20.20;99.90
18624;DHT22;9441;51.420;7.036;2022-08-03T00:35:44;20.20;99.90
18624;DHT22;9441;51.420;7.036;2022-08-03T00:36:46;20.10;99.90
18624;DHT22;9441;51.420;7.036;2022-08-03T00:37:47;20.10;99.90
18624;DHT22;9441;51.420;7.036;2022-08-03T00:38:49;20.00;99.90
18624;DHT22;9441;51.420;7.036;2022-08-03T00:39:50;20.10;99.90
18624;DHT22;9441;51.420;7.036;2022-08-03T00:40:52;20.00;99.90
18624;DHT22;9441;51.420;7.036;2022-08-03T00:41:55;20.10;99.90
18624;DHT22;9441;51.420;7.036;2022-08-03T00:42:58;20.10;99.90
18624;DHT22;9441;51.420;7.036;2022-08-03T00:44:00;20.10;99.90
18624;DHT22;9441;51.420;7.036;2022-08-03T00:45:01;20.20;99.90
18624;DHT22;9441;51.420;7.036;2022-08-03T00:46:03;20.20;99.90
18624;DHT22;9441;51.420;7.036;2022-08-03T00:47:07;20.20;99.90
18624;DHT22;9441;51.420;7.036;2022-08-03T00:48:11;20.20;99.90
18624;DHT22;9441;51.420;7.036;2022-08-03T00:49:13;20.20;99.90
18624;DHT22;9441;51.420;7.036;2022-08-03T00:50:15;20.10;99.90
18624;DHT22;9441;51.420;7.036;2022-08-03T00:51:17;20.10;99.90
18624;DHT22;9441;51.420;7.036;2022-08-03T00:52:19;20.00;99.90
18624;DHT22;9441;51.420;7.036;2022-08-03T00:53:21;20.00;99.90
18624;DHT22;9441;51.420;7.036;2022-08-03T00:54:24;20.00;99.90
18624;DHT22;9441;51.420;7.036;2022-08-03T00:55:26;19.90;99.90
18624;DHT22;9441;51.420;7.036;2022-08-03T00:56:27;19.90;99.90
18624;DHT22;9441;51.420;7.036;2022-08-03T00:57:31;19.90;99.90
18624;DHT22;9441;51.420;7.036;2022-08-03T00:58:32;19.90;99.90
18624;DHT22;9441;51.420;7.036;2022-08-03T00:59:34;19.80;99.90
18624;DHT22;9441;51.420;7.036;2022-08-03T01:00:39;19.80;99.90
18624;DHT22;9441;51.420;7.036;2022-08-03T01:01:41;19.80;99.90
18624;DHT22;9441;51.420;7.036;2022-08-03T01:02:43;19.80;99.90
18624;DHT22;9441;51.420;7.036;2022-08-03T01:03:46;19.80;99.90
18624;DHT22;9441;51.420;7.036;2022-08-03T01:04:47;19.80;99.90
18624;DHT22;9441;51.420;7.036;2022-08-03T01:05:57;19.90;99.90
18624;DHT22;9441;51.420;7.036;2022-08-03T01:07:06;19.80;99.90
18624;DHT22;9441;51.420;7.036;2022-08-03T01:08:24;19.90;99.90
18624;DHT22;9441;51.420;7.036;2022-08-03T01:09:37;19.90;99.90
18624;DHT22;9441;51.420;7.036;2022-08-03T01:10:53;19.80;99.90
18624;DHT22;9441;51.420;7.036;2022-08-03T01:12:03;19.80;99.90
18624;DHT22;9441;51.420;7.036;2022-08-03T01:13:19;19.80;99.90
18624;DHT22;9441;51.420;7.036;2022-08-03T01:14:26;19.90;99.90
18624;DHT22;9441;51.420;7.036;2022-08-03T01:15:36;19.80;99.90
18624;DHT22;9441;51.420;7.036;2022-08-03T01:16:46;19.80;99.90
18624;DHT22;9441;51.420;7.036;2022-08-03T01:17:54;19.80;99.90
18624;DHT22;9441;51.420;7.036;2022-08-03T01:19:01;19.90;99.90
18624;DHT22;9441;51.420;7.036;2022-08-03T01:20:07;19.90;99.90
18624;DHT22;9441;51.420;7.036;2022-08-03T01:21:12;19.80;99.90
18624;DHT22;9441;51.420;7.036;2022-08-03T01:22:36;19.90;99.90
18624;DHT22;9441;51.420;7.036;2022-08-03T01:23:54;19.80;99.90
18624;DHT22;9441;51.420;7.036;2022-08-03T01:25:03;19.70;99.90
18624;DHT22;9441;51.420;7.036;2022-08-03T01:26:16;19.80;99.90
18624;DHT22;9441;51.420;7.036;2022-08-03T01:27:28;19.80;99.90
18624;DHT22;9441;51.420;7.036;2022-08-03T01:28:42;19.80;99.90
18624;DHT22;9441;51.420;7.036;2022-08-03T01:29:58;19.80;99.90
18624;DHT22;9441;51.420;7.036;2022-08-03T01:31:04;19.60;99.90
18624;DHT22;9441;51.420;7.036;2022-08-03T01:32:09;19.60;99.90
18624;DHT22;9441;51.420;7.036;2022-08-03T01:33:16;19.60;99.90
18624;DHT22;9441;51.420;7.036;2022-08-03T01:34:19;19.60;99.90
18624;DHT22;9441;51.420;7.036;2022-08-03T01:35:27;19.70;99.90
18624;DHT22;9441;51.420;7.036;2022-08-03T01:36:34;19.70;99.90
18624;DHT22;9441;51.420;7.036;2022-08-03T01:37:42;19.70;99.90
18624;DHT22;9441;51.420;7.036;2022-08-03T01:38:49;19.60;99.90
18624;DHT22;9441;51.420;7.036;2022-08-03T01:39:51;19.70;99.90
18624;DHT22;9441;51.420;7.036;2022-08-03T01:40:55;19.70;99.90
18624;DHT22;9441;51.420;7.036;2022-08-03T01:41:59;19.60;99.90
18624;DHT22;9441;51.420;7.036;2022-08-03T01:43:08;19.70;99.90
18624;DHT22;9441;51.420;7.036;2022-08-03T01:44:12;19.60;99.90
18624;DHT22;9441;51.420;7.036;2022-08-03T01:45:16;19.70;99.90
18624;DHT22;9441;51.420;7.036;2022-08-03T01:46:20;19.60;99.90
18624;DHT22;9441;51.420;7.036;2022-08-03T01:47:23;19.60;99.90
18624;DHT22;9441;51.420;7.036;2022-08-03T01:48:27;19.60;99.90
18624;DHT22;9441;51.420;7.036;2022-08-03T01:49:30;19.70;99.90
18624;DHT22;9441;51.420;7.036;2022-08-03T01:50:34;19.70;99.90
18624;DHT22;9441;51.420;7.036;2022-08-03T01:52:39;19.70;99.90
18624;DHT22;9441;51.420;7.036;2022-08-03T01:53:42;19.70;99.90
18624;DHT22;9441;51.420;7.036;2022-08-03T01:54:48;19.70;99.90
18624;DHT22;9441;51.420;7.036;2022-08-03T01:55:53;19.70;99.90
18624;DHT22;9441;51.420;7.036;2022-08-03T01:56:57;19.60;99.90
18624;DHT22;9441;51.420;7.036;2022-08-03T01:58:01;19.70;99.90
18624;DHT22;9441;51.420;7.036;2022-08-03T01:59:03;19.80;99.90
18624;DHT22;9441;51.420;7.036;2022-08-03T02:00:06;19.80;99.90
18624;DHT22;9441;51.420;7.036;2022-08-03T02:01:20;19.80;99.90
18624;DHT22;9441;51.420;7.036;2022-08-03T02:02:23;19.80;99.90
18624;DHT22;9441;51.420;7.036;2022-08-03T02:03:26;19.80;99.90
18624;DHT22;9441;51.420;7.036;2022-08-03T02:04:28;19.80;99.90
18624;DHT22;9441;51.420;7.036;2022-08-03T02:05:31;19.80;99.90
18624;DHT22;9441;51.420;7.036;2022-08-03T02:06:33;19.80;99.90
18624;DHT22;9441;51.420;7.036;2022-08-03T02:07:39;19.70;99.90
18624;DHT22;9441;51.420;7.036;2022-08-03T02:08:41;19.70;99.90
18624;DHT22;9441;51.420;7.036;2022-08-03T02:09:46;19.60;99.90
18624;DHT22;9441;51.420;7.036;2022-08-03T02:10:50;19.60;99.90
18624;DHT22;9441;51.420;7.036;2022-08-03T02:11:54;19.50;99.90
18624;DHT22;9441;51.420;7.036;2022-08-03T02:12:56;19.50;99.90
18624;DHT22;9441;51.420;7.036;2022-08-03T02:14:01;19.60;99.90
18624;DHT22;9441;51.420;7.036;2022-08-03T02:15:04;19.60;99.90
18624;DHT22;9441;51.420;7.036;2022-08-03T02:16:08;19.50;99.90
18624;DHT22;9441;51.420;7.036;2022-08-03T02:17:12;19.50;99.90
18624;DHT22;9441;51.420;7.036;2022-08-03T02:18:16;19.50;99.90
18624;DHT22;9441;51.420;7.036;2022-08-03T02:19:18;19.60;99.90
18624;DHT22;9441;51.420;7.036;2022-08-03T02:20:21;19.60;99.90
18624;DHT22;9441;51.420;7.036;2022-08-03T02:21:22;19.60;99.90
18624;DHT22;9441;51.420;7.036;2022-08-03T02:22:24;19.60;99.90
18624;DHT22;9441;51.420;7.036;2022-08-03T02:23:26;19.50;99.90
18624;DHT22;9441;51.420;7.036;2022-08-03T02:24:30;19.60;99.90
18624;DHT22;9441;51.420;7.036;2022-08-03T02:25:32;19.60;99.90
18624;DHT22;9441;51.420;7.036;2022-08-03T02:26:37;19.60;99.90
18624;DHT22;9441;51.420;7.036;2022-08-03T02:27:43;19.60;99.90
18624;DHT22;9441;51.420;7.036;2022-08-03T02:28:48;19.60;99.90
18624;DHT22;9441;51.420;7.036;2022-08-03T02:29:55;19.60;99.90
18624;DHT22;9441;51.420;7.036;2022-08-03T02:30:58;19.60;99.90
18624;DHT22;9441;51.420;7.036;2022-08-03T02:32:03;19.60;99.90
18624;DHT22;9441;51.420;7.036;2022-08-03T02:33:10;19.60;99.90
18624;DHT22;9441;51.420;7.036;2022-08-03T02:34:13;19.70;99.90
18624;DHT22;9441;51.420;7.036;2022-08-03T02:35:17;19.60;99.90
18624;DHT22;9441;51.420;7.036;2022-08-03T02:36:24;19.60;99.90
18624;DHT22;9441;51.420;7.036;2022-08-03T02:37:30;19.60;99.90
18624;DHT22;9441;51.420;7.036;2022-08-03T02:38:35;19.60;99.90
18624;DHT22;9441;51.420;7.036;2022-08-03T02:39:40;19.60;99.90
18624;DHT22;9441;51.420;7.036;2022-08-03T02:40:42;19.50;99.90
18624;DHT22;9441;51.420;7.036;2022-08-03T02:41:50;19.50;99.90
18624;DHT22;9441;51.420;7.036;2022-08-03T02:42:54;19.50;99.90
18624;DHT22;9441;51.420;7.036;2022-08-03T02:44:01;19.50;99.90
18624;DHT22;9441;51.420;7.036;2022-08-03T02:45:06;19.40;99.90
18624;DHT22;9441;51.420;7.036;2022-08-03T02:46:09;19.50;99.90
18624;DHT22;9441;51.420;7.036;2022-08-03T02:47:12;19.50;99.90
18624;DHT22;9441;51.420;7.036;2022-08-03T02:48:19;19.40;99.90
18624;DHT22;9441;51.420;7.036;2022-08-03T02:49:22;19.40;99.90
18624;DHT22;9441;51.420;7.036;2022-08-03T02:50:26;19.40;99.90
18624;DHT22;9441;51.420;7.036;2022-08-03T02:51:30;19.50;99.90
18624;DHT22;9441;51.420;7.036;2022-08-03T02:52:35;19.40;99.90
18624;DHT22;9441;51.420;7.036;2022-08-03T02:53:38;19.50;99.90
18624;DHT22;9441;51.420;7.036;2022-08-03T02:54:42;19.50;99.90
18624;DHT22;9441;51.420;7.036;2022-08-03T02:55:45;19.50;99.90
18624;DHT22;9441;51.420;7.036;2022-08-03T02:56:48;19.50;99.90
18624;DHT22;9441;51.420;7.036;2022-08-03T02:57:50;19.50;99.90
18624;DHT22;9441;51.420;7.036;2022-08-03T02:58:53;19.50;99.90
18624;DHT22;9441;51.420;7.036;2022-08-03T02:59:57;19.40;99.90
18624;DHT22;9441;51.420;7.036;2022-08-03T03:01:01;19.40;99.90
18624;DHT22;9441;51.420;7.036;2022-08-03T03:02:03;19.50;99.90
18624;DHT22;9441;51.420;7.036;2022-08-03T03:03:05;19.40;99.90
18624;DHT22;9441;51.420;7.036;2022-08-03T03:04:10;19.40;99.90
18624;DHT22;9441;51.420;7.036;2022-08-03T03:05:12;19.30;99.90
18624;DHT22;9441;51.420;7.036;2022-08-03T03:06:15;19.40;99.90
18624;DHT22;9441;51.420;7.036;2022-08-03T03:07:18;19.40;99.90
18624;DHT22;9441;51.420;7.036;2022-08-03T03:08:20;19.30;99.90
18624;DHT22;9441;51.420;7.036;2022-08-03T03:09:23;19.40;99.90
18624;DHT22;9441;51.420;7.036;2022-08-03T03:10:25;19.40;99.90
18624;DHT22;9441;51.420;7.036;2022-08-03T03:11:28;19.40;99.90
18624;DHT22;9441;51.420;7.036;2022-08-03T03:12:30;19.40;99.90
18624;DHT22;9441;51.420;7.036;2022-08-03T03:13:34;19.40;99.90
18624;DHT22;9441;51.420;7.036;2022-08-03T03:14:37;19.40;99.90
18624;DHT22;9441;51.420;7.036;2022-08-03T03:15:40;19.40;99.90
18624;DHT22;9441;51.420;7.036;2022-08-03T03:16:42;19.40;99.90
18624;DHT22;9441;51.420;7.036;2022-08-03T03:17:46;19.50;99.90
18624;DHT22;9441;51.420;7.036;2022-08-03T03:18:48;19.40;99.90
18624;DHT22;9441;51.420;7.036;2022-08-03T03:19:53;19.40;99.90
18624;DHT22;9441;51.420;7.036;2022-08-03T03:20:56;19.40;99.90
18624;DHT22;9441;51.420;7.036;2022-08-03T03:22:00;19.40;99.90
18624;DHT22;9441;51.420;7.036;2022-08-03T03:23:03;19.40;99.90
18624;DHT22;9441;51.420;7.036;2022-08-03T03:24:06;19.30;99.90
18624;DHT22;9441;51.420;7.036;2022-08-03T03:25:09;19.20;99.90
18624;DHT22;9441;51.420;7.036;2022-08-03T03:26:13;19.20;99.90
18624;DHT22;9441;51.420;7.036;2022-08-03T03:27:15;19.30;99.90
18624;DHT22;9441;51.420;7.036;2022-08-03T03:28:17;19.30;99.90
18624;DHT22;9441;51.420;7.036;2022-08-03T03:29:19;19.30;99.90
18624;DHT22;9441;51.420;7.036;2022-08-03T03:30:22;19.30;99.90
18624;DHT22;9441;51.420;7.036;2022-08-03T03:31:23;19.10;99.90
18624;DHT22;9441;51.420;7.036;2022-08-03T03:32:26;19.10;99.90
18624;DHT22;9441;51.420;7.036;2022-08-03T03:33:27;19.20;99.90
18624;DHT22;9441;51.420;7.036;2022-08-03T03:34:29;19.10;99.90
18624;DHT22;9441;51.420;7.036;2022-08-03T03:35:32;19.00;99.90
18624;DHT22;9441;51.420;7.036;2022-08-03T03:36:35;19.00;99.90
18624;DHT22;9441;51.420;7.036;2022-08-03T03:37:37;19.00;99.90
18624;DHT22;9441;51.420;7.036;2022-08-03T03:38:38;19.00;99.90
18624;DHT22;9441;51.420;7.036;2022-08-03T03:39:40;19.00;99.90
18624;DHT22;9441;51.420;7.036;2022-08-03T03:40:41;19.00;99.90
18624;DHT22;9441;51.420;7.036;2022-08-03T03:41:43;19.10;99.90
18624;DHT22;9441;51.420;7.036;2022-08-03T03:42:44;19.10;99.90
18624;DHT22;9441;51.420;7.036;2022-08-03T03:43:48;19.10;99.90
18624;DHT22;9441;51.420;7.036;2022-08-03T03:44:49;19.20;99.90
18624;DHT22;9441;51.420;7.036;2022-08-03T03:45:51;19.20;99.90
18624;DHT22;9441;51.420;7.036;2022-08-03T03:46:54;19.20;99.90
18624;DHT22;9441;51.420;7.036;2022-08-03T03:47:58;19.30;99.90
18624;DHT22;9441;51.420;7.036;2022-08-03T03:48:59;19.20;99.90
18624;DHT22;9441;51.420;7.036;2022-08-03T03:50:02;19.20;99.90
18624;DHT22;9441;51.420;7.036;2022-08-03T03:51:04;19.10;99.90
18624;DHT22;9441;51.420;7.036;2022-08-03T03:52:07;19.10;99.90
18624;DHT22;9441;51.420;7.036;2022-08-03T03:53:10;19.10;99.90
18624;DHT22;9441;51.420;7.036;2022-08-03T03:54:12;19.20;99.90
18624;DHT22;9441;51.420;7.036;2022-08-03T03:55:17;19.10;99.90
18624;DHT22;9441;51.420;7.036;2022-08-03T03:56:19;19.20;99.90
18624;DHT22;9441;51.420;7.036;2022-08-03T03:57:20;19.20;99.90
18624;DHT22;9441;51.420;7.036;2022-08-03T03:58:22;19.20;99.90
18624;DHT22;9441;51.420;7.036;2022-08-03T03:59:23;19.20;99.90
18624;DHT22;9441;51.420;7.036;2022-08-03T04:00:25;19.20;99.90
18624;DHT22;9441;51.420;7.036;2022-08-03T04:01:26;19.20;99.90
18624;DHT22;9441;51.420;7.036;2022-08-03T04:02:29;19.20;99.90
18624;DHT22;9441;51.420;7.036;2022-08-03T04:03:30;19.20;99.90
18624;DHT22;9441;51.420;7.036;2022-08-03T04:04:32;19.10;99.90
18624;DHT22;9441;51.420;7.036;2022-08-03T04:05:52;19.20;99.90
18624;DHT22;9441;51.420;7.036;2022-08-03T04:07:13;19.20;99.90
18624;DHT22;9441;51.420;7.036;2022-08-03T04:08:33;19.20;99.90
18624;DHT22;9441;51.420;7.036;2022-08-03T04:09:53;19.30;99.90
18624;DHT22;9441;51.420;7.036;2022-08-03T04:11:18;19.20;99.90
18624;DHT22;9441;51.420;7.036;2022-08-03T04:12:22;19.20;99.90
18624;DHT22;9441;51.420;7.036;2022-08-03T04:13:28;19.20;99.90
18624;DHT22;9441;51.420;7.036;2022-08-03T04:14:32;19.20;99.90
18624;DHT22;9441;51.420;7.036;2022-08-03T04:15:37;19.20;99.90
18624;DHT22;9441;51.420;7.036;2022-08-03T04:16:42;19.20;99.90
18624;DHT22;9441;51.420;7.036;2022-08-03T04:17:46;19.20;99.90
18624;DHT22;9441;51.420;7.036;2022-08-03T04:18:53;19.20;99.90
18624;DHT22;9441;51.420;7.036;2022-08-03T04:19:56;19.30;99.90
18624;DHT22;9441;51.420;7.036;2022-08-03T04:21:01;19.30;99.90
18624;DHT22;9441;51.420;7.036;2022-08-03T04:22:06;19.30;99.90
18624;DHT22;9441;51.420;7.036;2022-08-03T04:23:11;19.30;99.90
18624;DHT22;9441;51.420;7.036;2022-08-03T04:24:14;19.30;99.90
18624;DHT22;9441;51.420;7.036;2022-08-03T04:25:17;19.40;99.90
18624;DHT22;9441;51.420;7.036;2022-08-03T04:26:21;19.40;99.90
18624;DHT22;9441;51.420;7.036;2022-08-03T04:27:25;19.40;99.90
18624;DHT22;9441;51.420;7.036;2022-08-03T04:28:29;19.50;99.90
18624;DHT22;9441;51.420;7.036;2022-08-03T04:29:32;19.40;99.90
18624;DHT22;9441;51.420;7.036;2022-08-03T04:30:36;19.40;99.90
18624;DHT22;9441;51.420;7.036;2022-08-03T04:31:39;19.40;99.90
18624;DHT22;9441;51.420;7.036;2022-08-03T04:32:43;19.40;99.90
18624;DHT22;9441;51.420;7.036;2022-08-03T04:33:51;19.40;99.90
18624;DHT22;9441;51.420;7.036;2022-08-03T04:34:54;19.40;99.90
18624;DHT22;9441;51.420;7.036;2022-08-03T04:35:57;19.40;99.90
18624;DHT22;9441;51.420;7.036;2022-08-03T04:37:03;19.30;99.90
18624;DHT22;9441;51.420;7.036;2022-08-03T04:38:06;19.30;99.90
18624;DHT22;9441;51.420;7.036;2022-08-03T04:39:15;19.20;99.90
18624;DHT22;9441;51.420;7.036;2022-08-03T04:40:19;19.30;99.90
18624;DHT22;9441;51.420;7.036;2022-08-03T04:41:24;19.40;99.90
18624;DHT22;9441;51.420;7.036;2022-08-03T04:42:26;19.30;99.90
18624;DHT22;9441;51.420;7.036;2022-08-03T04:43:28;19.30;99.90
18624;DHT22;9441;51.420;7.036;2022-08-03T04:44:35;19.50;99.90
18624;DHT22;9441;51.420;7.036;2022-08-03T04:45:37;19.40;99.90
18624;DHT22;9441;51.420;7.036;2022-08-03T04:46:41;19.40;99.90
18624;DHT22;9441;51.420;7.036;2022-08-03T04:47:44;19.40;99.90
18624;DHT22;9441;51.420;7.036;2022-08-03T04:48:46;19.40;99.90
18624;DHT22;9441;51.420;7.036;2022-08-03T04:49:47;19.40;99.90
18624;DHT22;9441;51.420;7.036;2022-08-03T04:50:50;19.50;99.90
18624;DHT22;9441;51.420;7.036;2022-08-03T04:51:52;19.50;99.90
18624;DHT22;9441;51.420;7.036;2022-08-03T04:52:54;19.60;99.90
18624;DHT22;9441;51.420;7.036;2022-08-03T04:53:56;19.60;99.90
18624;DHT22;9441;51.420;7.036;2022-08-03T04:55:00;19.70;99.90
18624;DHT22;9441;51.420;7.036;2022-08-03T04:56:05;19.60;99.90
18624;DHT22;9441;51.420;7.036;2022-08-03T04:57:07;19.60;99.90
18624;DHT22;9441;51.420;7.036;2022-08-03T04:58:09;19.70;99.90
18624;DHT22;9441;51.420;7.036;2022-08-03T04:59:12;19.70;99.90
18624;DHT22;9441;51.420;7.036;2022-08-03T05:00:14;19.70;99.90
18624;DHT22;9441;51.420;7.036;2022-08-03T05:01:18;19.70;99.90
18624;DHT22;9441;51.420;7.036;2022-08-03T05:02:20;19.70;99.90
18624;DHT22;9441;51.420;7.036;2022-08-03T05:03:22;19.90;99.90
18624;DHT22;9441;51.420;7.036;2022-08-03T05:04:24;19.90;99.90
18624;DHT22;9441;51.420;7.036;2022-08-03T05:05:26;19.90;99.90
18624;DHT22;9441;51.420;7.036;2022-08-03T05:06:27;19.90;99.90
18624;DHT22;9441;51.420;7.036;2022-08-03T05:07:29;19.90;99.90
18624;DHT22;9441;51.420;7.036;2022-08-03T05:08:30;19.90;99.90
18624;DHT22;9441;51.420;7.036;2022-08-03T05:09:32;20.00;99.90
18624;DHT22;9441;51.420;7.036;2022-08-03T05:10:36;20.10;99.90
18624;DHT22;9441;51.420;7.036;2022-08-03T05:11:38;20.10;99.90
18624;DHT22;9441;51.420;7.036;2022-08-03T05:12:39;20.10;99.90
18624;DHT22;9441;51.420;7.036;2022-08-03T05:13:41;20.20;99.90
18624;DHT22;9441;51.420;7.036;2022-08-03T05:14:42;20.10;99.90
18624;DHT22;9441;51.420;7.036;2022-08-03T05:15:44;20.00;99.90
18624;DHT22;9441;51.420;7.036;2022-08-03T05:16:46;20.10;99.90
18624;DHT22;9441;51.420;7.036;2022-08-03T05:17:48;20.10;99.90
18624;DHT22;9441;51.420;7.036;2022-08-03T05:18:49;20.00;99.90
18624;DHT22;9441;51.420;7.036;2022-08-03T05:19:51;20.10;99.90
18624;DHT22;9441;51.420;7.036;2022-08-03T05:20:52;20.10;99.90
18624;DHT22;9441;51.420;7.036;2022-08-03T05:21:54;20.10;99.90
18624;DHT22;9441;51.420;7.036;2022-08-03T05:22:55;20.10;99.90
18624;DHT22;9441;51.420;7.036;2022-08-03T05:23:57;20.10;99.90
18624;DHT22;9441;51.420;7.036;2022-08-03T05:25:00;20.20;99.90
18624;DHT22;9441;51.420;7.036;2022-08-03T05:26:02;20.20;99.90
18624;DHT22;9441;51.420;7.036;2022-08-03T05:27:04;20.30;99.90
18624;DHT22;9441;51.420;7.036;2022-08-03T05:28:05;20.30;99.90
18624;DHT22;9441;51.420;7.036;2022-08-03T05:29:08;20.30;99.90
18624;DHT22;9441;51.420;7.036;2022-08-03T05:30:09;20.30;99.90
18624;DHT22;9441;51.420;7.036;2022-08-03T05:31:11;20.20;99.90
18624;DHT22;9441;51.420;7.036;2022-08-03T05:32:13;20.30;99.90
18624;DHT22;9441;51.420;7.036;2022-08-03T05:33:15;20.30;99.90
18624;DHT22;9441;51.420;7.036;2022-08-03T05:34:16;20.40;99.90
18624;DHT22;9441;51.420;7.036;2022-08-03T05:35:18;20.50;99.90
18624;DHT22;9441;51.420;7.036;2022-08-03T05:36:19;20.50;99.90
18624;DHT22;9441;51.420;7.036;2022-08-03T05:37:21;20.60;99.90
18624;DHT22;9441;51.420;7.036;2022-08-03T05:38:23;20.60;99.90
18624;DHT22;9441;51.420;7.036;2022-08-03T05:39:25;20.60;99.90
18624;DHT22;9441;51.420;7.036;2022-08-03T05:40:26;20.70;99.90
18624;DHT22;9441;51.420;7.036;2022-08-03T05:41:29;20.70;99.90
18624;DHT22;9441;51.420;7.036;2022-08-03T05:42:31;20.60;99.90
18624;DHT22;9441;51.420;7.036;2022-08-03T05:43:33;20.70;99.90
18624;DHT22;9441;51.420;7.036;2022-08-03T05:44:34;20.70;99.90
18624;DHT22;9441;51.420;7.036;2022-08-03T05:45:38;20.70;99.90
18624;DHT22;9441;51.420;7.036;2022-08-03T05:46:39;20.80;99.90
18624;DHT22;9441;51.420;7.036;2022-08-03T05:47:41;20.80;99.90
18624;DHT22;9441;51.420;7.036;2022-08-03T05:48:44;20.80;99.90
18624;DHT22;9441;51.420;7.036;2022-08-03T05:49:46;20.80;99.90
18624;DHT22;9441;51.420;7.036;2022-08-03T05:50:47;20.80;99.90
18624;DHT22;9441;51.420;7.036;2022-08-03T05:51:49;20.80;99.90
18624;DHT22;9441;51.420;7.036;2022-08-03T05:52:53;20.80;99.90
18624;DHT22;9441;51.420;7.036;2022-08-03T05:53:55;20.80;99.90
18624;DHT22;9441;51.420;7.036;2022-08-03T05:54:56;20.80;99.90
18624;DHT22;9441;51.420;7.036;2022-08-03T05:55:58;20.90;99.90
18624;DHT22;9441;51.420;7.036;2022-08-03T05:57:01;21.00;99.90
18624;DHT22;9441;51.420;7.036;2022-08-03T05:58:03;21.00;99.90
18624;DHT22;9441;51.420;7.036;2022-08-03T05:59:04;21.00;99.90
18624;DHT22;9441;51.420;7.036;2022-08-03T06:00:08;21.10;99.90
18624;DHT22;9441;51.420;7.036;2022-08-03T06:01:13;21.20;99.90
18624;DHT22;9441;51.420;7.036;2022-08-03T06:02:15;21.30;99.90
18624;DHT22;9441;51.420;7.036;2022-08-03T06:03:16;21.20;99.90
18624;DHT22;9441;51.420;7.036;2022-08-03T06:04:19;21.30;99.90
18624;DHT22;9441;51.420;7.036;2022-08-03T06:05:20;21.30;99.90
18624;DHT22;9441;51.420;7.036;2022-08-03T06:06:22;21.30;99.90
18624;DHT22;9441;51.420;7.036;2022-08-03T06:07:24;21.40;99.90
18624;DHT22;9441;51.420;7.036;2022-08-03T06:08:26;21.50;99.90
18624;DHT22;9441;51.420;7.036;2022-08-03T06:09:27;21.50;99.90
18624;DHT22;9441;51.420;7.036;2022-08-03T06:10:29;21.60;99.90
18624;DHT22;9441;51.420;7.036;2022-08-03T06:11:30;21.50;99.90
18624;DHT22;9441;51.420;7.036;2022-08-03T06:12:34;21.50;99.90
18624;DHT22;9441;51.420;7.036;2022-08-03T06:13:36;21.60;99.90
18624;DHT22;9441;51.420;7.036;2022-08-03T06:14:38;21.60;99.90
18624;DHT22;9441;51.420;7.036;2022-08-03T06:15:39;21.70;99.90
18624;DHT22;9441;51.420;7.036;2022-08-03T06:16:41;21.80;99.90
18624;DHT22;9441;51.420;7.036;2022-08-03T06:17:46;21.70;1.00
18624;DHT22;9441;51.420;7.036;2022-08-03T06:18:48;21.80;20.30
18624;DHT22;9441;51.420;7.036;2022-08-03T06:19:51;21.90;99.90
18624;DHT22;9441;51.420;7.036;2022-08-03T06:20:53;22.00;99.90
18624;DHT22;9441;51.420;7.036;2022-08-03T06:21:54;22.00;1.00
18624;DHT22;9441;51.420;7.036;2022-08-03T06:22:56;22.00;1.00
18624;DHT22;9441;51.420;7.036;2022-08-03T06:23:58;22.10;1.00
18624;DHT22;9441;51.420;7.036;2022-08-03T06:25:00;22.10;99.90
18624;DHT22;9441;51.420;7.036;2022-08-03T06:26:01;22.10;1.00
18624;DHT22;9441;51.420;7.036;2022-08-03T06:27:04;22.20;1.00
18624;DHT22;9441;51.420;7.036;2022-08-03T06:28:06;22.20;1.00
18624;DHT22;9441;51.420;7.036;2022-08-03T06:29:08;22.20;1.00
18624;DHT22;9441;51.420;7.036;2022-08-03T06:30:11;22.30;1.00
18624;DHT22;9441;51.420;7.036;2022-08-03T06:31:12;22.30;1.00
18624;DHT22;9441;51.420;7.036;2022-08-03T06:32:14;22.30;99.90
18624;DHT22;9441;51.420;7.036;2022-08-03T06:33:16;22.40;99.90
18624;DHT22;9441;51.420;7.036;2022-08-03T06:34:17;22.40;1.00
18624;DHT22;9441;51.420;7.036;2022-08-03T06:35:19;22.30;45.80
18624;DHT22;9441;51.420;7.036;2022-08-03T06:36:21;22.30;1.00
18624;DHT22;9441;51.420;7.036;2022-08-03T06:37:23;22.40;1.00
18624;DHT22;9441;51.420;7.036;2022-08-03T06:38:27;22.40;1.00
18624;DHT22;9441;51.420;7.036;2022-08-03T06:39:28;22.50;1.00
18624;DHT22;9441;51.420;7.036;2022-08-03T06:40:33;22.50;1.00
18624;DHT22;9441;51.420;7.036;2022-08-03T06:41:34;22.60;1.00
18624;DHT22;9441;51.420;7.036;2022-08-03T06:42:38;22.60;1.00
18624;DHT22;9441;51.420;7.036;2022-08-03T06:43:41;22.60;1.00
18624;DHT22;9441;51.420;7.036;2022-08-03T06:44:42;22.70;1.00
18624;DHT22;9441;51.420;7.036;2022-08-03T06:45:45;22.70;1.00
18624;DHT22;9441;51.420;7.036;2022-08-03T06:46:46;22.70;99.90
18624;DHT22;9441;51.420;7.036;2022-08-03T06:47:59;22.70;1.00
18624;DHT22;9441;51.420;7.036;2022-08-03T06:49:00;22.70;99.90
18624;DHT22;9441;51.420;7.036;2022-08-03T06:50:03;22.80;99.90